Time;durP1;ratioP1;P1;durP2;ratioP2;P2;SDS_P1;SDS_P2;PMS_P1;PMS_P2;Temp;Humidity;BMP_temperature;BMP_pressure;BME280_temperature;BME280_humidity;BME280_pressure;Samples;Min_cycle;Max_cycle;Signal;HPM_P1;HPM_P2
2020/12/05 00:01:51;;;;;;;31.52;18.25;;;;;;;0.18;89.17;101720.08;1747162;79;21192;-75
2020/12/05 00:04:19;;;;;;;37.85;20.70;;;;;;;0.21;89.23;101722.89;1753865;79;21200;-73
2020/12/05 00:06:46;;;;;;;42.88;22.93;;;;;;;0.19;89.24;101716.46;1761405;79;21383;-76
2020/12/05 00:09:14;;;;;;;32.48;17.57;;;;;;;0.19;89.27;101725.66;1747700;81;21223;-80
2020/12/05 00:11:41;;;;;;;31.17;16.62;;;;;;;0.19;89.33;101724.34;1765463;79;21156;-81
2020/12/05 00:14:09;;;;;;;37.10;21.27;;;;;;;0.19;89.37;101727.47;1762431;79;21806;-79
2020/12/05 00:16:36;;;;;;;31.50;17.80;;;;;;;0.17;89.41;101729.45;1753593;79;21622;-82
2020/12/05 00:19:03;;;;;;;42.33;24.63;;;;;;;0.19;89.45;101732.23;1760678;79;21612;-81
2020/12/05 00:21:31;;;;;;;36.35;19.45;;;;;;;0.22;89.47;101731.09;1749108;79;21231;-79
2020/12/05 00:23:59;;;;;;;39.03;20.95;;;;;;;0.26;89.52;101735.53;1749924;80;21181;-82
2020/12/05 00:26:26;;;;;;;33.53;18.23;;;;;;;0.25;89.53;101733.90;1756288;79;21196;-82
2020/12/05 00:28:54;;;;;;;41.83;23.38;;;;;;;0.25;89.52;101739.97;1763675;80;21631;-82
2020/12/05 00:31:21;;;;;;;34.30;19.12;;;;;;;0.25;89.54;101740.47;1762333;80;22114;-82
2020/12/05 00:33:50;;;;;;;35.88;19.85;;;;;;;0.25;89.59;101744.41;1746212;80;21301;-81
2020/12/05 00:36:18;;;;;;;38.63;22.95;;;;;;;0.26;89.62;101748.67;1759000;79;21163;-84
2020/12/05 00:38:46;;;;;;;37.95;20.52;;;;;;;0.27;89.64;101751.16;1752593;79;21171;-79
2020/12/05 00:41:18;;;;;;;38.48;21.27;;;;;;;0.30;89.67;101748.70;1761003;80;21235;-79
2020/12/05 00:43:46;;;;;;;43.55;23.90;;;;;;;0.31;89.69;101747.72;1760499;79;21398;-79
2020/12/05 00:46:13;;;;;;;35.75;20.00;;;;;;;0.30;89.69;101746.89;1756607;79;21230;-81
2020/12/05 00:48:41;;;;;;;47.05;25.08;;;;;;;0.32;89.69;101744.91;1754613;79;21268;-80
2020/12/05 00:51:12;;;;;;;41.60;22.45;;;;;;;0.32;89.70;101746.23;1757207;80;21168;-80
2020/12/05 00:53:41;;;;;;;39.45;22.05;;;;;;;0.31;89.72;101738.02;1754361;80;21195;-81
2020/12/05 00:56:09;;;;;;;35.23;18.70;;;;;;;0.31;89.74;101738.52;1753814;79;21666;-81
2020/12/05 00:58:38;;;;;;;39.53;22.75;;;;;;;0.31;89.75;101736.70;1760546;79;21468;-82
2020/12/05 01:01:06;;;;;;;44.53;24.77;;;;;;;0.26;89.76;101738.16;1748204;79;21734;-82
2020/12/05 01:03:33;;;;;;;42.13;22.77;;;;;;;0.26;89.81;101739.47;1745883;80;21191;-81
2020/12/05 01:06:01;;;;;;;42.90;22.77;;;;;;;0.29;89.83;101741.78;1754568;79;21242;-82
2020/12/05 01:08:28;;;;;;;40.12;22.58;;;;;;;0.31;89.82;101737.20;1775374;79;22213;-81
2020/12/05 01:10:56;;;;;;;49.80;28.17;;;;;;;0.31;89.82;101744.59;1763138;80;21215;-81
2020/12/05 01:13:23;;;;;;;43.17;23.05;;;;;;;0.30;89.84;101750.84;1749214;80;21625;-81
2020/12/05 01:15:51;;;;;;;45.85;24.98;;;;;;;0.36;89.91;101746.73;1758296;79;21555;-82
2020/12/05 01:18:18;;;;;;;44.13;23.62;;;;;;;0.40;89.91;101744.95;1754897;79;21222;-80
2020/12/05 01:20:46;;;;;;;50.58;26.68;;;;;;;0.48;89.87;101743.31;1759171;80;21137;-81
2020/12/05 01:23:13;;;;;;;41.75;23.90;;;;;;;0.47;89.80;101751.70;1760232;80;21171;-78
2020/12/05 01:25:41;;;;;;;46.55;24.05;;;;;;;0.49;89.83;101754.97;1751930;79;21194;-76
2020/12/05 01:28:08;;;;;;;45.20;23.92;;;;;;;0.52;89.82;101748.08;1756577;79;21194;-77
2020/12/05 01:30:35;;;;;;;45.35;24.30;;;;;;;0.56;89.77;101744.16;1749367;80;21444;-77
2020/12/05 01:33:03;;;;;;;36.90;19.62;;;;;;;0.56;89.63;101738.06;1751698;79;21272;-78
2020/12/05 01:35:32;;;;;;;47.38;26.12;;;;;;;0.56;89.60;101738.91;1746816;79;21207;-77
2020/12/05 01:38:01;;;;;;;46.50;24.77;;;;;;;0.55;89.50;101743.81;1756876;79;21192;-77
2020/12/05 01:40:28;;;;;;;49.15;25.30;;;;;;;0.52;89.44;101738.87;1757806;80;21195;-76
2020/12/05 01:42:56;;;;;;;43.17;22.40;;;;;;;0.53;89.42;101741.86;1760796;80;22326;-78
2020/12/05 01:45:23;;;;;;;44.50;23.87;;;;;;;0.56;89.36;101737.59;1755113;80;21394;-80
2020/12/05 01:47:51;;;;;;;45.23;25.00;;;;;;;0.57;89.34;101739.72;1773938;78;21227;-80
2020/12/05 01:50:19;;;;;;;51.65;27.37;;;;;;;0.58;89.29;101735.60;1782767;79;21175;-83
2020/12/05 01:52:49;;;;;;;45.03;22.20;;;;;;;0.58;89.17;101738.73;1734428;80;21137;-83
2020/12/05 01:55:17;;;;;;;42.30;23.27;;;;;;;0.53;89.04;101745.80;1742643;81;21182;-85
2020/12/05 01:57:44;;;;;;;51.28;26.50;;;;;;;0.45;88.98;101743.95;1748443;80;21824;-86
2020/12/05 02:00:12;;;;;;;52.60;25.80;;;;;;;0.46;89.00;101748.25;1783478;79;21578;-84
2020/12/05 02:02:39;;;;;;;53.35;26.73;;;;;;;0.49;89.00;101750.21;1747757;80;21187;-79
2020/12/05 02:05:21;;;;;;;45.58;23.07;;;;;;;0.46;88.90;101745.63;1772181;79;21195;-81
2020/12/05 02:07:58;;;;;;;;;;;;;;;0.50;88.87;101743.49;1746592;80;21168;-79
2020/12/05 02:10:28;;;;;;;40.80;21.55;;;;;;;0.49;88.73;101735.75;1753179;80;22164;-79
2020/12/05 02:13:21;;;;;;;48.38;23.45;;;;;;;0.46;88.71;101735.11;1741204;80;21207;-83
2020/12/05 02:15:49;;;;;;;41.10;21.55;;;;;;;0.43;88.58;101737.23;1771780;79;21206;-81
2020/12/05 02:18:16;;;;;;;51.15;25.15;;;;;;;0.45;88.56;101742.64;1737936;80;21161;-80
2020/12/05 02:20:43;;;;;;;51.80;26.82;;;;;;;0.44;88.48;101737.06;1737542;81;21156;-81
2020/12/05 02:23:17;;;;;;;49.65;26.30;;;;;;;0.44;88.42;101752.02;1791922;79;21622;-79
2020/12/05 02:28:26;;;;;;;54.73;26.83;;;;;;;0.51;88.27;101754.33;1756893;79;22920;-72
2020/12/05 02:30:53;;;;;;;51.77;26.93;;;;;;;0.45;88.19;101760.22;1736970;81;21417;-75
2020/12/05 02:33:21;;;;;;;48.92;24.25;;;;;;;0.41;88.12;101758.41;1744299;81;21666;-73
2020/12/05 02:35:50;;;;;;;48.25;25.35;;;;;;;0.38;88.05;101760.54;1754535;79;21131;-73
2020/12/05 02:38:23;;;;;;;52.62;25.88;;;;;;;0.37;88.05;101763.66;1761510;80;21559;-72
2020/12/05 02:40:51;;;;;;;56.50;27.65;;;;;;;0.39;88.00;101764.31;1762523;79;21198;-74
2020/12/05 02:43:19;;;;;;;51.37;26.10;;;;;;;0.38;87.96;101762.67;1762880;79;21186;-73
2020/12/05 02:45:46;;;;;;;49.45;24.37;;;;;;;0.38;87.87;101762.67;1719682;81;21708;-74
2020/12/05 02:48:15;;;;;;;52.33;27.15;;;;;;;0.35;87.78;101756.42;1762466;79;21183;-73
2020/12/05 02:50:42;;;;;;;53.65;27.15;;;;;;;0.35;87.74;101763.48;1764776;79;21202;-73
2020/12/05 02:53:11;;;;;;;46.53;22.10;;;;;;;0.37;87.73;101762.84;1768793;80;21135;-74
2020/12/05 02:55:38;;;;;;;58.28;28.35;;;;;;;0.38;87.63;101758.73;1767725;81;21573;-73
2020/12/05 02:58:06;;;;;;;60.50;29.98;;;;;;;0.34;87.48;101767.11;1765450;79;21202;-73
2020/12/05 03:00:34;;;;;;;65.35;32.53;;;;;;;0.32;87.49;101767.75;1765683;79;21110;-74
2020/12/05 03:03:02;;;;;;;54.38;26.52;;;;;;;0.38;87.57;101761.85;1767625;79;21069;-74
2020/12/05 03:05:30;;;;;;;68.17;30.92;;;;;;;0.41;87.51;101758.41;1762897;79;21241;-73
2020/12/05 03:07:58;;;;;;;59.38;29.92;;;;;;;0.40;87.43;101762.03;1641586;79;10000442;-74
2020/12/05 03:10:26;;;;;;;48.65;23.75;;;;;;;0.41;87.36;101759.72;1763847;80;21079;-73
2020/12/05 03:12:54;;;;;;;64.15;30.23;;;;;;;0.41;87.31;101769.42;1759770;79;21649;-73
2020/12/05 03:15:21;;;;;;;50.48;24.00;;;;;;;0.36;87.27;101764.66;1746974;81;21197;-74
2020/12/05 03:17:49;;;;;;;59.73;28.62;;;;;;;0.37;87.31;101765.47;1761099;79;21673;-74
2020/12/05 03:20:16;;;;;;;45.67;23.92;;;;;;;0.35;87.30;101760.86;1760043;79;21308;-74
2020/12/05 03:22:44;;;;;;;44.13;22.02;;;;;;;0.34;87.29;101758.72;1757692;81;21202;-73
2020/12/05 03:25:12;;;;;;;52.40;26.57;;;;;;;0.32;87.29;101750.66;1763253;79;21681;-74
2020/12/05 03:27:39;;;;;;;50.85;26.57;;;;;;;0.31;87.33;101747.22;1758736;79;21662;-73
2020/12/05 03:30:07;;;;;;;48.35;25.40;;;;;;;0.30;87.39;101741.64;1770050;79;21201;-73
2020/12/05 03:32:34;;;;;;;42.20;22.30;;;;;;;0.31;87.41;101747.22;1767687;79;21695;-74
2020/12/05 03:35:02;;;;;;;42.43;23.38;;;;;;;0.28;87.40;101748.84;1761147;79;21189;-73
2020/12/05 03:37:30;;;;;;;38.70;21.95;;;;;;;0.27;87.45;101755.59;1762530;79;21732;-73
2020/12/05 03:39:58;;;;;;;46.45;24.45;;;;;;;0.26;87.49;101755.24;1765624;79;21174;-75
2020/12/05 03:42:26;;;;;;;37.67;19.73;;;;;;;0.25;87.55;101754.42;1761218;79;21252;-73
2020/12/05 03:44:54;;;;;;;40.48;21.95;;;;;;;0.26;87.54;101752.12;1764096;79;22176;-74
2020/12/05 03:47:21;;;;;;;44.93;23.57;;;;;;;0.26;87.54;101756.05;1756428;81;21178;-74
2020/12/05 03:49:50;;;;;;;41.53;22.67;;;;;;;0.23;87.56;101752.43;1764609;79;21158;-73
2020/12/05 03:52:18;;;;;;;47.85;24.12;;;;;;;0.26;87.65;101760.49;1749745;81;21214;-74
2020/12/05 03:54:46;;;;;;;41.50;20.92;;;;;;;0.28;87.62;101758.55;1740251;81;21160;-73
2020/12/05 03:57:14;;;;;;;41.10;21.93;;;;;;;0.27;87.55;101762.16;1750909;81;21217;-75
2020/12/05 03:59:42;;;;;;;43.58;23.60;;;;;;;0.26;87.54;101764.44;1733223;81;21191;-74
2020/12/05 04:02:09;;;;;;;48.33;26.00;;;;;;;0.21;87.52;101763.61;1756483;80;21230;-74
2020/12/05 04:04:37;;;;;;;48.63;26.02;;;;;;;0.22;87.59;101762.13;1766052;81;21618;-75
2020/12/05 04:07:05;;;;;;;39.80;20.15;;;;;;;0.27;87.58;101762.16;1756709;79;21222;-74
2020/12/05 04:09:34;;;;;;;44.88;23.87;;;;;;;0.30;87.56;101759.22;1763431;80;21376;-73
2020/12/05 04:12:01;;;;;;;46.40;22.80;;;;;;;0.30;87.51;101762.66;1764682;79;21190;-74
2020/12/05 04:14:29;;;;;;;38.70;20.43;;;;;;;0.29;87.53;101765.44;1762892;79;21250;-74
2020/12/05 04:16:57;;;;;;;47.85;23.73;;;;;;;0.26;87.57;101760.49;1764989;79;21166;-74
2020/12/05 04:19:25;;;;;;;42.00;20.88;;;;;;;0.25;87.56;101764.11;1762713;79;21657;-72
2020/12/05 04:21:54;;;;;;;45.75;23.65;;;;;;;0.22;87.59;101767.38;1762889;79;21267;-75
2020/12/05 04:24:21;;;;;;;46.85;25.45;;;;;;;0.19;87.63;101778.20;1741776;80;21151;-74
2020/12/05 04:26:49;;;;;;;34.03;17.15;;;;;;;0.13;87.65;101780.18;1756517;79;21181;-73
2020/12/05 04:29:16;;;;;;;36.93;20.10;;;;;;;0.14;87.76;101777.05;1742198;81;21848;-73
2020/12/05 04:31:44;;;;;;;43.68;23.62;;;;;;;0.15;87.76;101769.00;1734465;81;21271;-75
2020/12/05 04:34:11;;;;;;;38.70;22.22;;;;;;;0.18;87.80;101777.06;1756524;81;21355;-75
2020/12/05 04:36:39;;;;;;;37.13;20.25;;;;;;;0.18;87.85;101776.56;1767752;79;21138;-75
2020/12/05 04:39:07;;;;;;;44.37;24.23;;;;;;;0.15;87.82;101773.44;1644016;79;9999975;-74
2020/12/05 04:41:35;;;;;;;42.15;22.87;;;;;;;0.15;87.87;101770.31;1769403;79;23226;-74
2020/12/05 04:44:02;;;;;;;33.50;17.90;;;;;;;0.15;87.91;101778.69;1759933;79;21390;-73
2020/12/05 04:46:30;;;;;;;37.38;20.35;;;;;;;0.18;87.98;101776.56;1757234;79;21221;-76
2020/12/05 04:48:57;;;;;;;39.45;19.42;;;;;;;0.14;87.99;101763.42;1765407;79;21169;-75
2020/12/05 04:51:25;;;;;;;33.35;18.30;;;;;;;0.13;88.00;101775.39;1756452;80;21402;-74
2020/12/05 04:53:53;;;;;;;40.17;22.58;;;;;;;0.11;88.06;101774.74;1735162;81;21569;-74
2020/12/05 04:56:20;;;;;;;41.35;22.15;;;;;;;0.07;88.13;101772.11;1759310;79;21608;-74
2020/12/05 04:58:49;;;;;;;39.70;22.93;;;;;;;0.06;88.21;101773.06;1722929;79;21626;-74
2020/12/05 05:01:18;;;;;;;35.80;19.80;;;;;;;0.05;88.24;101776.19;1762181;80;21673;-74
2020/12/05 05:03:46;;;;;;;37.53;20.82;;;;;;;0.04;88.29;101782.44;1762627;79;21190;-74
2020/12/05 05:06:20;;;;;;;42.17;22.60;;;;;;;0.02;88.38;101778.31;1748229;80;21166;-75
2020/12/05 05:08:48;;;;;;;41.05;22.10;;;;;;;0.01;88.48;101773.55;1728496;81;21367;-74
2020/12/05 05:11:17;;;;;;;32.55;17.85;;;;;;;0.03;88.56;101778.14;1701640;83;23351;-74
2020/12/05 05:14:00;;;;;;;40.75;21.90;;;;;;;0.05;88.58;101778.81;1752425;80;21187;-74
2020/12/05 05:16:28;;;;;;;33.02;17.42;;;;;;;0.05;88.61;101779.31;1699737;84;21306;-73
2020/12/05 05:19:06;;;;;;;39.27;20.77;;;;;;;0.04;88.68;101779.80;1738716;80;21579;-74
2020/12/05 05:21:39;;;;;;;35.00;18.73;;;;;;;0.02;88.74;101781.75;1735814;81;21155;-73
2020/12/05 05:24:18;;;;;;;46.83;24.70;;;;;;;0.05;88.81;101782.75;1763801;79;21138;-73
2020/12/05 05:27:08;;;;;;;29.40;16.30;;;;;;;0.13;88.86;101788.06;1838984;77;22677;-76
2020/12/05 05:29:41;;;;;;;43.48;23.70;;;;;;;0.11;88.89;101791.33;1796071;79;21171;-74
2020/12/05 05:32:15;;;;;;;40.85;22.75;;;;;;;0.12;88.85;101792.96;1785763;79;21641;-75
2020/12/05 05:34:41;;;;;;;42.70;21.27;;;;;;;0.14;88.88;101793.64;1787180;79;21228;-75
2020/12/05 05:37:19;;;;;;;43.78;22.80;;;;;;;0.18;88.91;101796.27;1789952;79;21682;-74
2020/12/05 05:39:51;;;;;;;35.55;20.48;;;;;;;0.21;88.91;101805.16;1781919;79;21306;-73
2020/12/05 05:42:29;;;;;;;;;;;;;;;0.27;88.91;101805.02;1787735;79;21543;-74
2020/12/05 05:45:24;;;;;;;42.20;22.37;;;;;;;0.27;88.82;101801.58;1799954;79;21341;-75
2020/12/05 05:48:02;;;;;;;38.08;18.87;;;;;;;0.25;88.82;101795.64;1787579;79;21618;-74
2020/12/05 05:50:35;;;;;;;40.48;22.82;;;;;;;0.22;88.83;101788.40;1782871;79;21618;-73
2020/12/05 05:53:10;;;;;;;42.58;21.73;;;;;;;0.22;88.83;101790.21;1789344;79;21112;-74
2020/12/05 05:55:47;;;;;;;47.83;24.45;;;;;;;0.20;88.87;101794.81;1782155;79;21187;-75
2020/12/05 05:58:17;;;;;;;29.42;15.75;;;;;;;0.19;88.85;101797.91;1785512;79;22259;-72
2020/12/05 06:00:49;;;;;;;42.55;22.13;;;;;;;0.20;88.91;101802.70;1796728;79;21661;-74
2020/12/05 06:03:23;;;;;;;45.88;23.73;;;;;;;0.18;88.91;101807.28;1794194;79;21143;-74
2020/12/05 06:05:53;;;;;;;42.17;23.20;;;;;;;0.17;88.91;101804.33;1797644;79;21209;-73
2020/12/05 06:08:23;;;;;;;44.90;23.62;;;;;;;0.19;88.96;101804.48;1777778;79;21186;-73
2020/12/05 06:11:00;;;;;;;42.55;21.97;;;;;;;0.22;89.02;101807.28;1780613;79;22320;-75
2020/12/05 06:13:30;;;;;;;42.78;22.60;;;;;;;0.20;88.97;101800.08;1785139;79;21741;-72
2020/12/05 06:16:05;;;;;;;38.90;21.60;;;;;;;0.18;89.01;101804.16;1785158;79;21202;-74
2020/12/05 06:18:40;;;;;;;45.75;24.15;;;;;;;0.19;89.07;101803.16;1800833;79;21124;-73
2020/12/05 06:21:08;;;;;;;41.92;21.57;;;;;;;0.14;89.10;101805.46;1795725;79;21096;-74
2020/12/05 06:23:49;;;;;;;34.83;17.65;;;;;;;0.11;89.18;101801.02;1794524;79;21245;-73
2020/12/05 06:26:28;;;;;;;50.38;26.57;;;;;;;0.11;89.25;101805.77;1798689;79;22068;-73
2020/12/05 06:28:57;;;;;;;34.63;18.70;;;;;;;0.14;89.30;101805.95;1797094;79;21187;-75
2020/12/05 06:31:45;;;;;;;49.30;26.17;;;;;;;0.19;89.36;101812.86;1802818;79;21151;-75
2020/12/05 06:34:41;;;;;;;34.67;19.27;;;;;;;0.20;89.39;101815.84;1787514;79;21616;-75
2020/12/05 06:37:31;;;;;;;43.13;23.12;;;;;;;0.22;89.42;101823.87;1784510;77;21195;-76
2020/12/05 06:40:04;;;;;;;40.65;20.65;;;;;;;0.19;89.42;101822.88;1796718;77;21267;-73
2020/12/05 06:42:53;;;;;;;36.85;18.70;;;;;;;0.20;89.49;101830.29;1786097;79;21769;-73
2020/12/05 06:45:35;;;;;;;30.85;16.55;;;;;;;0.17;89.49;101835.36;1791690;79;21611;-75
2020/12/05 06:48:15;;;;;;;32.60;17.73;;;;;;;0.14;89.51;101830.91;1792020;79;21163;-73
2020/12/05 06:50:45;;;;;;;38.88;20.88;;;;;;;0.15;89.59;101826.80;1794345;79;21264;-76
2020/12/05 06:53:27;;;;;;;39.95;20.45;;;;;;;0.18;89.64;101831.74;1791218;77;21210;-74
2020/12/05 06:55:57;;;;;;;38.53;19.82;;;;;;;0.19;89.64;101832.07;1803933;77;21218;-74
2020/12/05 06:58:26;;;;;;;38.67;20.77;;;;;;;0.23;89.65;101833.89;1804247;78;21152;-74
2020/12/05 07:00:54;;;;;;;40.52;21.60;;;;;;;0.21;89.65;101831.44;1796470;77;21242;-74
2020/12/05 07:03:30;;;;;;;40.58;21.15;;;;;;;0.17;89.67;101833.23;1807920;77;21199;-73
2020/12/05 07:05:58;;;;;;;46.98;24.35;;;;;;;0.16;89.68;101845.52;1804860;77;21228;-75
2020/12/05 07:08:36;;;;;;;42.48;22.20;;;;;;;0.18;89.71;101843.56;1813966;77;21611;-74
2020/12/05 07:11:14;;;;;;;43.65;23.98;;;;;;;0.19;89.73;101849.64;1799205;77;21142;-74
2020/12/05 07:13:48;;;;;;;36.68;19.25;;;;;;;0.15;89.76;101851.76;1800905;77;21571;-73
2020/12/05 07:16:23;;;;;;;40.50;22.32;;;;;;;0.16;89.80;101852.58;1802629;78;21188;-75
2020/12/05 07:18:55;;;;;;;45.15;23.25;;;;;;;0.18;89.84;101862.45;1803027;77;21119;-74
2020/12/05 07:21:25;;;;;;;38.00;21.20;;;;;;;0.19;89.89;101865.41;1799515;78;21175;-73
2020/12/05 07:23:54;;;;;;;43.65;22.62;;;;;;;0.23;89.93;101870.21;1806258;78;21208;-73
2020/12/05 07:26:22;;;;;;;39.45;21.02;;;;;;;0.26;89.89;101868.23;1811261;78;21132;-75
2020/12/05 07:28:52;;;;;;;37.63;19.27;;;;;;;0.28;89.89;101874.16;1801518;77;21376;-76
2020/12/05 07:31:20;;;;;;;42.78;22.07;;;;;;;0.30;89.89;101877.47;1799274;77;21171;-75
2020/12/05 07:33:47;;;;;;;40.00;20.23;;;;;;;0.33;89.90;101882.39;1801704;77;21205;-72
2020/12/05 07:36:17;;;;;;;42.48;22.17;;;;;;;0.34;89.90;101878.30;1795984;79;22235;-74
2020/12/05 07:38:46;;;;;;;35.25;19.87;;;;;;;0.35;89.87;101881.25;1805990;79;21586;-75
2020/12/05 07:41:19;;;;;;;44.23;22.37;;;;;;;0.40;89.86;101887.37;1795101;77;21644;-75
2020/12/05 07:43:48;;;;;;;37.67;20.95;;;;;;;0.38;89.78;101884.89;1808392;77;21159;-74
2020/12/05 07:46:16;;;;;;;43.90;23.40;;;;;;;0.39;89.75;101880.45;1819527;77;21599;-74
2020/12/05 07:48:44;;;;;;;50.12;24.70;;;;;;;0.41;89.73;101891.14;1781973;78;21125;-73
2020/12/05 07:51:16;;;;;;;41.60;21.00;;;;;;;0.43;89.70;101885.25;1796783;77;21681;-74
2020/12/05 07:53:45;;;;;;;38.25;20.50;;;;;;;0.46;89.69;101889.34;1803760;77;22367;-75
2020/12/05 07:56:19;;;;;;;33.55;17.90;;;;;;;0.41;89.61;101881.13;1802295;77;21091;-73
2020/12/05 07:58:54;;;;;;;43.05;22.55;;;;;;;0.36;89.59;101880.30;1806914;77;21171;-73
2020/12/05 08:01:59;;;;;;;44.13;22.20;;;;;;;0.31;89.61;101883.05;1794842;79;21131;-74
2020/12/05 08:04:54;;;;;;;28.65;15.70;;;;;;;0.29;89.66;101877.12;1802942;79;21166;-74
2020/12/05 08:07:37;;;;;;;45.43;22.55;;;;;;;0.30;89.72;101891.92;1801759;79;22286;-74
2020/12/05 08:10:14;;;;;;;40.83;22.25;;;;;;;0.32;89.78;101892.58;1795329;79;21155;-74
2020/12/05 08:13:11;;;;;;;41.18;23.20;;;;;;;0.33;89.77;101895.06;1804948;79;21199;-75
2020/12/05 08:15:38;;;;;;;44.93;23.95;;;;;;;0.33;89.79;101899.00;1799225;79;21626;-74
2020/12/05 08:18:06;;;;;;;42.48;21.40;;;;;;;0.36;89.82;101901.78;1805726;77;21206;-75
2020/12/05 08:20:33;;;;;;;33.50;17.90;;;;;;;0.39;89.85;101901.48;1805016;79;21183;-74
2020/12/05 08:23:01;;;;;;;32.78;19.37;;;;;;;0.40;89.81;101905.28;1804446;79;21128;-75
2020/12/05 08:25:29;;;;;;;32.13;17.45;;;;;;;0.42;89.83;101914.31;1772192;79;22465;-75
2020/12/05 08:27:56;;;;;;;42.53;23.30;;;;;;;0.43;89.82;101911.54;1803197;79;21194;-73
2020/12/05 08:30:30;;;;;;;41.63;23.57;;;;;;;0.43;89.77;101915.98;1789395;79;21221;-74
2020/12/05 08:33:02;;;;;;;45.05;24.57;;;;;;;0.47;89.80;101921.25;1793727;79;21356;-73
2020/12/05 08:35:33;;;;;;;38.25;20.90;;;;;;;0.53;89.83;101922.40;1797440;77;21195;-76
2020/12/05 08:38:03;;;;;;;33.48;18.30;;;;;;;0.55;89.77;101919.14;1803695;79;21147;-75
2020/12/05 08:40:31;;;;;;;39.27;21.67;;;;;;;0.55;89.67;101919.14;1671207;79;10000522;-76
2020/12/05 08:42:59;;;;;;;36.25;20.17;;;;;;;0.51;89.64;101914.69;1790458;79;20952;-75
2020/12/05 08:45:26;;;;;;;42.30;24.05;;;;;;;0.51;89.66;101920.44;1802996;79;21170;-75
2020/12/05 08:47:54;;;;;;;35.73;20.48;;;;;;;0.49;89.67;101920.58;1785493;79;21155;-76
2020/12/05 08:50:35;;;;;;;34.25;17.87;;;;;;;0.52;89.70;101924.70;1785612;79;21683;-74
2020/12/05 08:53:03;;;;;;;40.67;22.52;;;;;;;0.53;89.71;101921.09;1787635;79;22413;-75
2020/12/05 08:55:32;;;;;;;40.12;23.75;;;;;;;0.54;89.69;101922.27;1793712;77;21488;-77
2020/12/05 08:58:03;;;;;;;37.58;19.45;;;;;;;0.56;89.70;101920.31;1796048;79;21178;-76
2020/12/05 09:00:34;;;;;;;36.93;21.73;;;;;;;0.60;89.72;101924.77;1812737;79;21737;-74
2020/12/05 09:03:03;;;;;;;25.02;14.30;;;;;;;0.61;89.63;101918.52;1795154;79;21610;-78
2020/12/05 09:05:49;;;;;;;41.55;22.52;;;;;;;0.58;89.57;101911.75;1795587;79;21198;-75
2020/12/05 09:08:19;;;;;;;30.68;16.48;;;;;;;0.54;89.56;101915.69;1795216;79;21524;-74
2020/12/05 09:10:48;;;;;;;43.78;24.55;;;;;;;0.55;89.58;101919.14;1802073;79;21174;-74
2020/12/05 09:13:15;;;;;;;40.45;23.00;;;;;;;0.57;89.60;101918.00;1790255;79;21601;-73
2020/12/05 09:15:54;;;;;;;46.42;23.98;;;;;;;0.57;89.54;101919.31;1793979;79;21162;-72
2020/12/05 09:18:22;;;;;;;42.48;23.07;;;;;;;0.54;89.51;101918.31;1799181;79;21264;-73
2020/12/05 09:20:49;;;;;;;41.15;22.98;;;;;;;0.57;89.54;101915.37;1801019;79;21454;-75
2020/12/05 09:23:29;;;;;;;39.00;21.17;;;;;;;0.61;89.52;101914.07;1777048;79;21186;-74
2020/12/05 09:26:03;;;;;;;43.42;22.77;;;;;;;0.66;89.49;101912.30;1797878;79;21189;-74
2020/12/05 09:28:32;;;;;;;50.50;26.70;;;;;;;0.65;89.45;101907.51;1798215;79;21152;-74
2020/12/05 09:31:07;;;;;;;46.40;25.30;;;;;;;0.63;89.34;101913.44;1795560;79;22341;-74
2020/12/05 09:33:35;;;;;;;49.80;26.35;;;;;;;0.64;89.36;101909.81;1801186;79;21427;-73
2020/12/05 09:36:03;;;;;;;50.33;26.42;;;;;;;0.69;89.36;101911.48;1790591;79;21187;-76
2020/12/05 09:57:29;;;;;;;46.30;26.87;;;;;;;1.17;88.69;101895.49;1761461;79;22736;-76
2020/12/05 09:59:56;;;;;;;38.13;20.72;;;;;;;1.17;88.62;101897.30;1738793;82;21116;-75
2020/12/05 10:02:24;;;;;;;47.43;25.55;;;;;;;1.16;88.62;101901.75;1759967;81;21382;-75
2020/12/05 10:04:51;;;;;;;57.27;29.60;;;;;;;1.12;88.48;101900.44;1769024;79;21150;-75
2020/12/05 10:07:18;;;;;;;44.67;24.20;;;;;;;1.04;88.28;101894.32;1758777;80;21144;-75
2020/12/05 10:09:48;;;;;;;49.55;26.70;;;;;;;0.92;88.10;101899.05;1743989;80;21250;-75
2020/12/05 10:12:16;;;;;;;51.28;27.98;;;;;;;0.83;88.07;101907.92;1701735;82;21192;-76
2020/12/05 10:14:44;;;;;;;46.45;25.52;;;;;;;0.75;88.11;101910.50;1723533;81;21212;-76
2020/12/05 10:17:12;;;;;;;52.40;27.62;;;;;;;0.75;88.17;101907.87;1731969;81;21705;-76
2020/12/05 10:19:39;;;;;;;52.45;29.23;;;;;;;0.76;88.19;101913.46;1735609;82;21154;-77
2020/12/05 10:22:08;;;;;;;48.50;27.02;;;;;;;0.77;88.17;101915.13;1725105;82;21147;-76
2020/12/05 10:24:36;;;;;;;51.70;26.77;;;;;;;0.78;88.20;101916.27;1727815;81;21183;-76
2020/12/05 10:27:03;;;;;;;40.28;22.50;;;;;;;0.76;88.09;101916.94;1728380;82;21819;-76
2020/12/05 10:29:31;;;;;;;50.52;26.90;;;;;;;0.75;88.01;101921.03;1720376;82;21190;-77
2020/12/05 10:31:58;;;;;;;41.83;21.77;;;;;;;0.68;87.92;101917.71;1724837;81;21182;-76
2020/12/05 10:34:25;;;;;;;46.33;24.25;;;;;;;0.65;87.98;101916.71;1723118;81;21202;-76
2020/12/05 10:36:54;;;;;;;48.40;26.12;;;;;;;0.66;87.95;101917.06;1771884;79;21188;-76
2020/12/05 10:39:21;;;;;;;45.63;25.77;;;;;;;0.67;87.87;101917.39;1771337;80;21419;-76
2020/12/05 10:41:50;;;;;;;38.10;22.05;;;;;;;0.67;87.65;101916.08;1780125;80;21214;-76
2020/12/05 10:44:18;;;;;;;36.60;20.02;;;;;;;0.64;87.67;101911.13;1776262;80;21138;-76
2020/12/05 10:46:49;;;;;;;45.15;25.32;;;;;;;0.64;87.59;101908.99;1770192;80;21661;-76
2020/12/05 10:49:18;;;;;;;33.75;18.52;;;;;;;0.59;87.51;101908.17;1765758;80;21116;-75
2020/12/05 10:51:46;;;;;;;39.42;21.02;;;;;;;0.59;87.47;101910.80;1770291;80;21439;-75
2020/12/05 10:54:14;;;;;;;46.23;26.00;;;;;;;0.56;87.45;101912.42;1748930;82;21177;-75
2020/12/05 10:56:41;;;;;;;47.70;26.90;;;;;;;0.56;87.44;101918.14;1731499;81;21241;-77
2020/12/05 10:59:11;;;;;;;41.08;23.73;;;;;;;0.51;87.39;101918.63;1739250;81;21182;-76
2020/12/05 11:01:40;;;;;;;46.10;27.22;;;;;;;0.52;87.42;101923.39;1726483;82;21191;-76
2020/12/05 11:04:07;;;;;;;40.28;21.95;;;;;;;0.48;87.37;101918.94;1737305;82;21389;-75
2020/12/05 11:06:35;;;;;;;41.23;22.42;;;;;;;0.47;87.37;101933.08;1743393;81;21197;-75
2020/12/05 11:09:02;;;;;;;42.23;23.52;;;;;;;0.45;87.37;101928.45;1732936;81;21179;-76
2020/12/05 11:11:30;;;;;;;38.08;22.90;;;;;;;0.43;87.33;101932.56;1743020;81;21674;-75
2020/12/05 11:13:58;;;;;;;40.45;22.22;;;;;;;0.41;87.36;101933.70;1737526;81;21136;-76
2020/12/05 11:16:25;;;;;;;45.63;26.60;;;;;;;0.40;87.37;101928.11;1771798;79;21203;-76
2020/12/05 11:18:53;;;;;;;42.75;22.87;;;;;;;0.36;87.36;101925.44;1774463;80;21203;-76
2020/12/05 11:21:20;;;;;;;41.15;22.22;;;;;;;0.36;87.39;101922.34;1778686;80;21166;-76
2020/12/05 11:23:50;;;;;;;40.75;23.25;;;;;;;0.37;87.39;101929.24;1781122;80;21122;-76
2020/12/05 11:26:21;;;;;;;45.05;23.27;;;;;;;0.35;87.38;101929.06;1773666;79;21176;-76
2020/12/05 11:28:50;;;;;;;40.40;21.60;;;;;;;0.34;87.36;101933.98;1751526;81;21366;-76
2020/12/05 11:31:18;;;;;;;40.30;23.80;;;;;;;0.33;87.29;101936.27;1736338;82;22007;-76
2020/12/05 11:33:45;;;;;;;36.93;19.90;;;;;;;0.29;87.22;101938.87;1734583;82;21598;-75
2020/12/05 11:36:13;;;;;;;38.35;21.30;;;;;;;0.25;87.21;101937.05;1731995;81;21692;-75
2020/12/05 11:38:55;;;;;;;45.33;23.92;;;;;;;0.23;87.19;101941.16;1796908;78;21098;-75
2020/12/05 11:41:22;;;;;;;38.40;21.73;;;;;;;0.22;87.21;101942.12;1811656;78;22154;-72
2020/12/05 11:43:50;;;;;;;36.93;21.40;;;;;;;0.22;87.23;101946.55;1788784;78;21471;-74
2020/12/05 11:46:20;;;;;;;35.98;21.20;;;;;;;0.21;87.24;101946.22;1802312;78;21120;-74
2020/12/05 11:48:54;;;;;;;39.33;21.37;;;;;;;0.20;87.20;101941.47;1819657;78;21116;-72
2020/12/05 11:51:26;;;;;;;38.13;22.85;;;;;;;0.20;87.17;101946.72;1823363;77;21124;-75
2020/12/05 11:53:53;;;;;;;43.42;25.75;;;;;;;0.21;87.17;101950.98;1819576;78;21195;-75